createdAt,value
2023-03-22T00:00:17.663Z,100.00
2023-03-22T00:02:44.725Z,100.00
2023-03-22T00:05:11.532Z,100.00
2023-03-22T00:07:38.560Z,100.00
2023-03-22T00:10:06.340Z,100.00
2023-03-22T00:12:33.162Z,100.00
2023-03-22T00:15:00.387Z,100.00
2023-03-22T00:17:27.339Z,100.00
2023-03-22T00:19:58.547Z,100.00
2023-03-22T00:22:25.839Z,100.00
2023-03-22T00:24:52.628Z,100.00
2023-03-22T00:27:19.570Z,100.00
2023-03-22T00:29:46.466Z,100.00
2023-03-22T00:32:13.348Z,100.00
2023-03-22T00:34:40.413Z,100.00
2023-03-22T00:37:08.213Z,100.00
2023-03-22T00:39:35.186Z,100.00
2023-03-22T00:42:05.057Z,100.00
2023-03-22T00:44:32.525Z,100.00
2023-03-22T00:46:59.352Z,100.00
2023-03-22T00:49:27.361Z,100.00
2023-03-22T00:51:54.962Z,100.00
2023-03-22T00:54:21.874Z,100.00
2023-03-22T00:56:50.032Z,100.00
2023-03-22T00:59:17.319Z,100.00
2023-03-22T01:01:44.348Z,100.00
2023-03-22T01:04:15.559Z,100.00
2023-03-22T01:06:42.541Z,100.00
2023-03-22T01:09:15.401Z,100.00
2023-03-22T01:11:43.638Z,100.00
2023-03-22T01:14:14.078Z,100.00
2023-03-22T01:16:41.112Z,100.00
2023-03-22T01:19:08.690Z,100.00
2023-03-22T01:21:35.704Z,100.00
2023-03-22T01:24:02.941Z,100.00
2023-03-22T01:26:29.847Z,100.00
2023-03-22T01:28:57.609Z,100.00
2023-03-22T01:31:24.965Z,100.00
2023-03-22T01:33:51.786Z,100.00
2023-03-22T01:36:20.589Z,100.00
2023-03-22T01:38:47.393Z,100.00
2023-03-22T01:41:17.215Z,100.00
2023-03-22T01:43:44.746Z,100.00
2023-03-22T01:46:12.219Z,100.00
2023-03-22T01:48:46.077Z,100.00
2023-03-22T01:51:24.308Z,100.00
2023-03-22T01:54:18.667Z,100.00
2023-03-22T01:56:47.310Z,100.00
2023-03-22T01:59:22.954Z,100.00
2023-03-22T02:02:08.140Z,100.00
2023-03-22T02:04:39.383Z,100.00
2023-03-22T02:07:15.387Z,100.00
2023-03-22T02:09:44.111Z,100.00
2023-03-22T02:12:50.823Z,100.00
2023-03-22T02:15:43.629Z,100.00
2023-03-22T02:19:00.758Z,100.00
2023-03-22T02:22:03.229Z,100.00
2023-03-22T02:24:32.973Z,100.00
2023-03-22T02:27:18.664Z,100.00
2023-03-22T02:30:09.512Z,100.00
2023-03-22T02:32:36.739Z,100.00
2023-03-22T02:35:39.090Z,100.00
2023-03-22T02:38:17.684Z,100.00
2023-03-22T02:40:44.521Z,100.00
2023-03-22T02:43:16.985Z,100.00
2023-03-22T02:46:01.420Z,100.00
2023-03-22T02:48:35.119Z,100.00
2023-03-22T02:51:18.197Z,100.00
2023-03-22T02:53:54.034Z,100.00
2023-03-22T02:56:36.191Z,100.00
2023-03-22T02:59:06.333Z,100.00
2023-03-22T03:01:51.468Z,100.00
2023-03-22T03:04:24.751Z,100.00
2023-03-22T03:06:54.356Z,100.00
2023-03-22T03:09:21.877Z,100.00
2023-03-22T03:11:52.028Z,100.00
2023-03-22T03:14:27.015Z,100.00
2023-03-22T03:17:06.887Z,100.00
2023-03-22T03:19:46.006Z,100.00
2023-03-22T03:22:47.466Z,100.00
2023-03-22T03:25:27.289Z,100.00
2023-03-22T03:28:11.561Z,100.00
2023-03-22T03:30:48.217Z,100.00
2023-03-22T03:33:18.931Z,100.00
2023-03-22T03:36:01.214Z,100.00
2023-03-22T03:38:32.003Z,100.00
2023-03-22T03:41:10.028Z,100.00
2023-03-22T03:43:37.645Z,100.00
2023-03-22T03:46:05.422Z,100.00
2023-03-22T03:48:36.053Z,100.00
2023-03-22T03:51:03.541Z,100.00
2023-03-22T03:53:31.313Z,100.00
2023-03-22T03:55:58.374Z,100.00
2023-03-22T03:58:30.549Z,100.00
2023-03-22T04:00:57.454Z,100.00
2023-03-22T04:03:50.899Z,100.00
2023-03-22T04:06:40.514Z,100.00
2023-03-22T04:09:14.709Z,100.00
2023-03-22T04:11:45.396Z,100.00
2023-03-22T04:14:13.975Z,100.00
2023-03-22T04:16:40.922Z,100.00
2023-03-22T04:19:11.483Z,100.00
2023-03-22T04:21:39.257Z,100.00
2023-03-22T04:24:07.559Z,100.00
2023-03-22T04:26:37.655Z,100.00
2023-03-22T04:29:32.256Z,100.00
2023-03-22T04:32:12.524Z,100.00
2023-03-22T04:34:43.180Z,100.00
2023-03-22T04:37:13.934Z,100.00
2023-03-22T04:39:54.607Z,100.00
2023-03-22T04:42:51.542Z,100.00
2023-03-22T04:45:29.374Z,100.00
2023-03-22T04:48:00.513Z,100.00
2023-03-22T04:50:28.395Z,100.00
2023-03-22T04:52:59.794Z,100.00
2023-03-22T04:55:27.772Z,100.00
2023-03-22T04:57:54.950Z,100.00
2023-03-22T05:00:24.180Z,100.00
2023-03-22T05:02:52.231Z,100.00
2023-03-22T05:05:53.577Z,100.00
2023-03-22T05:08:27.278Z,100.00
2023-03-22T05:10:55.908Z,100.00
2023-03-22T05:13:26.559Z,100.00
2023-03-22T05:15:54.293Z,100.00
2023-03-22T05:18:28.812Z,100.00
2023-03-22T05:20:57.532Z,100.00
2023-03-22T05:23:25.017Z,100.00
2023-03-22T05:25:58.419Z,100.00
2023-03-22T05:28:39.881Z,100.00
2023-03-22T05:31:28.738Z,100.00
2023-03-22T05:34:01.745Z,100.00
2023-03-22T05:36:30.409Z,100.00
2023-03-22T05:39:16.121Z,100.00
2023-03-22T05:41:44.163Z,100.00
2023-03-22T05:44:11.344Z,100.00
2023-03-22T05:46:44.743Z,100.00
2023-03-22T05:49:32.457Z,100.00
2023-03-22T05:52:04.519Z,100.00
2023-03-22T05:54:45.751Z,100.00
2023-03-22T05:57:12.741Z,100.00
2023-03-22T05:59:39.550Z,100.00
2023-03-22T06:02:09.147Z,100.00
2023-03-22T06:04:37.024Z,100.00
2023-03-22T06:07:10.443Z,100.00
2023-03-22T06:09:51.399Z,100.00
2023-03-22T06:12:24.857Z,100.00
2023-03-22T06:15:18.282Z,100.00
2023-03-22T06:18:21.079Z,100.00
2023-03-22T06:20:56.329Z,100.00
2023-03-22T06:23:24.455Z,100.00
2023-03-22T06:25:52.081Z,100.00
2023-03-22T06:28:19.447Z,100.00
2023-03-22T06:30:51.944Z,100.00
2023-03-22T06:33:38.201Z,100.00
2023-03-22T06:36:16.489Z,100.00
2023-03-22T06:39:05.639Z,100.00
2023-03-22T06:41:33.186Z,100.00
2023-03-22T06:44:01.266Z,100.00
2023-03-22T06:46:40.471Z,100.00
2023-03-22T06:49:17.188Z,100.00
2023-03-22T06:51:44.482Z,100.00
2023-03-22T06:54:13.424Z,100.00
2023-03-22T06:56:41.083Z,100.00
2023-03-22T06:59:08.247Z,100.00
2023-03-22T07:01:35.395Z,100.00
2023-03-22T07:04:02.446Z,100.00
2023-03-22T07:06:30.701Z,100.00
2023-03-22T07:08:57.598Z,100.00
2023-03-22T07:11:29.889Z,100.00
2023-03-22T07:13:59.460Z,100.00
2023-03-22T07:16:32.978Z,100.00
2023-03-22T07:19:02.173Z,100.00
2023-03-22T07:21:29.057Z,100.00
2023-03-22T07:23:59.802Z,100.00
2023-03-22T07:26:30.754Z,100.00
2023-03-22T07:28:59.045Z,100.00
2023-03-22T07:31:35.969Z,100.00
2023-03-22T07:34:05.873Z,100.00
2023-03-22T07:36:44.480Z,100.00
2023-03-22T07:39:12.715Z,100.00
2023-03-22T07:41:44.072Z,100.00
2023-03-22T08:55:08.459Z,84.52
2023-03-22T08:57:50.566Z,82.55
2023-03-22T09:00:20.598Z,84.69
2023-03-22T09:03:01.275Z,82.90
2023-03-22T09:05:28.219Z,86.51
2023-03-22T09:07:56.611Z,86.10
2023-03-22T09:10:33.460Z,84.23
2023-03-22T09:13:00.736Z,83.09
2023-03-22T09:15:27.696Z,85.58
2023-03-22T09:18:12.480Z,85.95
2023-03-22T09:20:40.548Z,81.61
2023-03-22T09:23:08.322Z,80.45
2023-03-22T09:25:35.507Z,80.22
2023-03-22T09:28:04.241Z,75.65
2023-03-22T09:30:31.306Z,74.49
2023-03-22T09:32:58.303Z,76.43
2023-03-22T09:35:25.201Z,74.72
2023-03-22T09:38:00.017Z,74.40
2023-03-22T09:40:31.966Z,75.23
2023-03-22T09:43:03.231Z,76.58
2023-03-22T09:45:38.748Z,77.15
2023-03-22T09:48:21.890Z,78.89
2023-03-22T09:50:52.939Z,78.85
2023-03-22T09:53:21.353Z,80.30
2023-03-22T09:55:54.600Z,78.29
2023-03-22T09:58:43.146Z,72.65
2023-03-22T10:01:35.522Z,73.34
2023-03-22T10:04:14.687Z,70.26
2023-03-22T10:06:49.669Z,67.91
2023-03-22T10:09:42.516Z,64.93
2023-03-22T10:12:34.988Z,61.19
2023-03-22T10:15:12.382Z,63.37
2023-03-22T10:17:42.296Z,64.10
2023-03-22T10:20:33.354Z,65.47
2023-03-22T10:23:03.489Z,61.54
2023-03-22T10:25:39.750Z,62.88
2023-03-22T10:28:39.832Z,60.64
2023-03-22T10:31:13.289Z,61.29
2023-03-22T10:33:50.582Z,58.69
2023-03-22T10:36:21.277Z,53.65
2023-03-22T10:38:55.775Z,58.13
2023-03-22T10:41:25.947Z,57.34
2023-03-22T10:43:56.775Z,56.35
2023-03-22T10:46:26.627Z,56.18
2023-03-22T10:48:59.675Z,55.62
2023-03-22T10:51:44.976Z,58.89
2023-03-22T10:54:17.990Z,56.74
2023-03-22T10:56:46.180Z,56.84
2023-03-22T10:59:49.170Z,54.37
2023-03-22T11:02:22.392Z,52.94
2023-03-22T11:04:53.124Z,54.74
2023-03-22T11:07:45.909Z,54.21
2023-03-22T11:10:18.952Z,55.18
2023-03-22T11:12:55.482Z,53.96
2023-03-22T11:15:34.768Z,54.38
2023-03-22T11:18:16.049Z,52.97
2023-03-22T11:20:57.262Z,53.42
2023-03-22T11:23:25.132Z,51.31
2023-03-22T11:25:55.793Z,53.14
2023-03-22T11:28:28.020Z,53.37
2023-03-22T11:31:03.095Z,51.26
2023-03-22T11:33:30.777Z,51.17
2023-03-22T11:36:03.687Z,50.20
2023-03-22T11:38:36.757Z,49.97
2023-03-22T11:41:21.171Z,49.98
2023-03-22T11:43:53.915Z,50.31
2023-03-22T11:46:21.863Z,49.53
2023-03-22T11:48:51.992Z,49.56
2023-03-22T11:51:35.329Z,50.44
2023-03-22T11:54:20.929Z,51.18
2023-03-22T11:56:49.383Z,50.81
2023-03-22T11:59:21.464Z,49.28
2023-03-22T12:01:58.789Z,49.32
2023-03-22T12:04:29.822Z,49.34
2023-03-22T12:07:00.673Z,48.46
2023-03-22T12:10:11.218Z,47.85
2023-03-22T12:12:49.607Z,48.40
2023-03-22T12:15:22.518Z,49.19
2023-03-22T12:18:04.929Z,46.09
2023-03-22T12:20:50.719Z,46.37
2023-03-22T12:23:28.138Z,45.59
2023-03-22T12:26:05.223Z,45.77
2023-03-22T12:28:42.734Z,45.82
2023-03-22T12:31:21.947Z,44.47
2023-03-22T12:33:52.769Z,44.26
2023-03-22T12:36:38.303Z,45.41
2023-03-22T12:39:08.392Z,43.99
2023-03-22T12:41:42.702Z,43.28
2023-03-22T12:44:12.709Z,42.03
2023-03-22T12:46:51.543Z,42.00
2023-03-22T12:49:21.835Z,42.64
2023-03-22T12:51:51.753Z,43.44
2023-03-22T12:54:22.373Z,41.98
2023-03-22T12:56:51.370Z,41.92
2023-03-22T12:59:23.730Z,41.23
2023-03-22T13:02:01.308Z,42.42
2023-03-22T13:04:49.727Z,41.76
2023-03-22T13:07:31.687Z,43.12
2023-03-22T13:10:00.192Z,41.46
2023-03-22T13:12:30.815Z,41.64
2023-03-22T13:15:28.419Z,41.68
2023-03-22T13:17:59.202Z,40.83
2023-03-22T13:20:28.371Z,41.33
2023-03-22T13:22:57.487Z,39.41
2023-03-22T13:25:38.682Z,39.89
2023-03-22T13:28:23.582Z,40.03
2023-03-22T13:30:53.667Z,40.42
2023-03-22T13:33:27.270Z,40.60
2023-03-22T13:35:56.943Z,40.48
2023-03-22T13:38:26.060Z,40.77
2023-03-22T13:41:08.029Z,39.93
2023-03-22T13:43:43.496Z,39.36
2023-03-22T13:46:13.299Z,41.13
2023-03-22T13:48:55.419Z,39.41
2023-03-22T13:51:25.782Z,40.14
2023-03-22T13:53:52.540Z,39.33
2023-03-22T13:56:34.025Z,38.30
2023-03-22T13:59:03.953Z,37.98
2023-03-22T14:01:36.988Z,38.62
2023-03-22T14:04:10.829Z,39.68
2023-03-22T14:06:52.644Z,39.01
2023-03-22T14:09:31.894Z,38.31
2023-03-22T14:12:20.859Z,38.62
2023-03-22T14:14:54.948Z,38.78
2023-03-22T14:17:47.729Z,38.54
2023-03-22T14:20:21.151Z,38.61
2023-03-22T14:53:16.786Z,39.39
2023-03-22T14:55:45.629Z,38.65
2023-03-22T14:58:15.849Z,38.57
2023-03-22T15:00:42.997Z,39.05
2023-03-22T15:03:20.409Z,38.96
2023-03-22T15:05:47.576Z,43.91
2023-03-22T15:08:20.177Z,38.71
2023-03-22T15:10:58.980Z,39.61
2023-03-22T15:13:27.031Z,39.43
2023-03-22T15:15:54.669Z,38.77
2023-03-22T15:18:24.894Z,40.86
2023-03-22T15:20:53.210Z,38.50
2023-03-22T15:23:31.756Z,38.66
2023-03-22T15:26:01.078Z,38.68
2023-03-22T15:28:31.577Z,38.36
2023-03-22T15:31:04.134Z,38.64
2023-03-22T15:33:37.633Z,38.13
2023-03-22T15:36:06.762Z,38.25
2023-03-22T15:38:46.668Z,38.53
2023-03-22T15:41:26.432Z,38.81
2023-03-22T15:44:04.819Z,39.23
2023-03-22T15:46:48.500Z,39.01
2023-03-22T15:49:19.584Z,39.33
2023-03-22T15:51:47.245Z,40.03
2023-03-22T15:54:19.913Z,40.04
2023-03-22T15:56:49.735Z,41.54
2023-03-22T15:59:31.732Z,43.07
2023-03-22T16:02:00.747Z,43.02
2023-03-22T16:04:34.753Z,44.34
2023-03-22T16:07:02.213Z,44.41
2023-03-22T16:09:29.140Z,44.39
2023-03-22T16:11:56.180Z,44.75
2023-03-22T16:14:23.203Z,45.63
2023-03-22T16:16:50.228Z,45.01
2023-03-22T16:19:17.358Z,45.97
2023-03-22T16:21:44.370Z,46.07
2023-03-22T16:24:12.831Z,46.61
2023-03-22T16:26:40.182Z,47.39
2023-03-22T16:29:07.134Z,47.76
2023-03-22T16:31:34.110Z,47.42
2023-03-22T16:34:01.092Z,48.35
2023-03-22T16:36:28.332Z,48.21
2023-03-22T16:38:55.440Z,48.43
2023-03-22T16:41:29.430Z,47.01
2023-03-22T16:43:58.851Z,46.40
2023-03-22T16:46:28.509Z,46.76
2023-03-22T16:48:55.553Z,47.43
2023-03-22T16:51:30.802Z,48.57
2023-03-22T16:53:58.999Z,49.27
2023-03-22T16:56:30.802Z,49.07
2023-03-22T16:58:57.792Z,49.98
2023-03-22T17:01:26.093Z,49.74
2023-03-22T17:03:53.452Z,50.03
2023-03-22T17:06:24.077Z,50.13
2023-03-22T17:08:55.333Z,49.85
2023-03-22T17:11:29.755Z,50.83
2023-03-22T17:13:59.066Z,51.76
2023-03-22T17:16:27.790Z,51.95
2023-03-22T17:18:57.248Z,52.95
2023-03-22T17:21:24.343Z,53.53
2023-03-22T17:23:51.619Z,53.45
2023-03-22T17:26:18.766Z,53.87
2023-03-22T17:28:48.064Z,54.41
2023-03-22T17:31:17.543Z,54.51
2023-03-22T17:33:45.295Z,55.01
2023-03-22T17:36:13.509Z,55.48
2023-03-22T17:38:53.277Z,55.82
2023-03-22T17:41:27.842Z,56.35
2023-03-22T17:43:54.711Z,56.64
2023-03-22T17:48:51.581Z,56.94
2023-03-22T17:51:18.484Z,57.03
2023-03-22T17:54:35.497Z,58.56
2023-03-22T17:57:01.054Z,57.59
2023-03-22T17:59:38.134Z,57.11
2023-03-22T18:02:50.931Z,57.84
2023-03-22T18:05:28.149Z,57.79
2023-03-22T18:08:27.266Z,58.65
2023-03-22T18:10:56.256Z,59.06
2023-03-22T18:13:28.140Z,58.55
2023-03-22T18:16:03.389Z,58.48
2023-03-22T18:18:34.158Z,60.18
2023-03-22T18:21:42.444Z,61.15
2023-03-22T18:24:25.133Z,61.67
2023-03-22T18:30:12.341Z,62.32
2023-03-22T18:33:03.830Z,64.42
2023-03-22T18:35:54.150Z,66.27
2023-03-22T18:39:02.984Z,66.17
2023-03-22T18:41:46.218Z,66.69
2023-03-22T18:44:26.470Z,66.57
2023-03-22T18:47:09.356Z,67.97
2023-03-22T18:49:58.625Z,69.14
2023-03-22T18:53:17.873Z,68.58
2023-03-22T18:55:52.241Z,71.08
2023-03-22T18:58:39.307Z,69.80
2023-03-22T19:01:13.063Z,69.15
2023-03-22T19:03:46.042Z,69.07
2023-03-22T19:07:01.053Z,69.36
2023-03-22T19:09:45.777Z,69.77
2023-03-22T19:12:28.522Z,69.65
2023-03-22T19:15:31.822Z,69.37
2023-03-22T19:18:32.293Z,70.92
2023-03-22T19:24:10.230Z,72.96
2023-03-22T19:26:58.488Z,71.80
2023-03-22T19:29:37.208Z,72.26
2023-03-22T19:32:04.721Z,70.23
2023-03-22T19:34:50.358Z,70.54
2023-03-22T19:37:21.340Z,69.36
2023-03-22T19:42:44.551Z,70.37
2023-03-22T19:45:26.367Z,73.29
2023-03-22T19:48:05.379Z,73.63
2023-03-22T19:50:39.079Z,72.52
2023-03-22T19:54:08.458Z,71.50
2023-03-22T19:56:18.730Z,71.83
2023-03-22T19:59:03.352Z,67.93
2023-03-22T20:01:40.222Z,68.67
2023-03-22T20:04:07.226Z,68.84
2023-03-22T20:06:55.312Z,67.37
2023-03-22T20:10:02.153Z,69.36
2023-03-22T20:12:38.917Z,70.56
2023-03-22T20:15:37.614Z,69.74
2023-03-22T20:18:09.705Z,69.74
2023-03-22T20:20:36.620Z,71.48
2023-03-22T20:23:22.284Z,66.33
2023-03-22T20:26:09.701Z,69.46
2023-03-22T20:29:02.758Z,71.08
2023-03-22T20:31:59.976Z,71.36
2023-03-22T20:35:04.697Z,71.57
2023-03-22T20:37:38.728Z,73.18
2023-03-22T20:40:12.290Z,73.75
2023-03-22T20:43:35.725Z,73.76
2023-03-22T20:46:57.255Z,74.82
2023-03-22T20:49:27.356Z,76.72
2023-03-22T20:52:03.707Z,78.78
2023-03-22T20:54:30.789Z,78.68
2023-03-22T20:56:57.899Z,77.55
2023-03-22T20:59:24.854Z,76.93
2023-03-22T21:01:53.567Z,78.17
2023-03-22T21:04:20.962Z,78.27
2023-03-22T21:06:49.120Z,79.90
2023-03-22T21:09:16.667Z,80.76
2023-03-22T21:11:43.834Z,80.64
2023-03-22T21:14:11.248Z,81.35
2023-03-22T21:16:44.063Z,81.27
2023-03-22T21:19:12.034Z,82.46
2023-03-22T21:21:40.075Z,84.12
2023-03-22T21:24:07.437Z,85.21
2023-03-22T21:26:34.492Z,85.16
2023-03-22T21:29:01.622Z,84.76
2023-03-22T21:31:28.708Z,84.01
2023-03-22T21:33:55.709Z,81.86
2023-03-22T21:36:22.640Z,82.60
2023-03-22T21:38:54.925Z,83.53
2023-03-22T21:41:24.477Z,86.23
2023-03-22T21:43:55.395Z,87.34
2023-03-22T21:46:24.218Z,88.20
2023-03-22T21:48:54.294Z,88.35
2023-03-22T21:51:28.513Z,87.75
2023-03-22T21:53:56.864Z,88.33
2023-03-22T21:56:24.788Z,90.14
2023-03-22T21:58:52.330Z,91.02
2023-03-22T22:01:19.984Z,93.18
2023-03-22T22:03:48.551Z,93.23
2023-03-22T22:06:15.681Z,93.26
2023-03-22T22:08:42.636Z,94.46
2023-03-22T22:11:10.149Z,95.70
2023-03-22T22:13:38.456Z,97.54
2023-03-22T22:16:08.352Z,97.63
2023-03-22T22:18:39.232Z,97.54
2023-03-22T22:21:09.289Z,98.33
2023-03-22T22:23:41.929Z,98.54
2023-03-22T22:26:10.323Z,97.32
2023-03-22T22:28:38.599Z,97.04
2023-03-22T22:31:10.266Z,96.92
2023-03-22T22:33:39.979Z,97.72
2023-03-22T22:36:10.491Z,97.74
2023-03-22T22:38:38.884Z,98.78
2023-03-22T22:41:11.641Z,100.00
2023-03-22T22:43:38.837Z,100.00
2023-03-22T22:46:06.304Z,100.00
2023-03-22T22:48:34.121Z,100.00
2023-03-22T22:51:06.582Z,100.00
2023-03-22T22:53:34.339Z,100.00
2023-03-22T22:56:02.263Z,100.00
2023-03-22T22:58:29.578Z,100.00
2023-03-22T23:00:56.724Z,100.00
2023-03-22T23:03:26.542Z,100.00
2023-03-22T23:05:53.682Z,100.00
2023-03-22T23:08:20.719Z,100.00
2023-03-22T23:10:52.624Z,100.00
2023-03-22T23:13:20.692Z,100.00
2023-03-22T23:15:52.943Z,100.00
2023-03-22T23:18:22.880Z,100.00
2023-03-22T23:20:50.726Z,100.00
2023-03-22T23:23:20.597Z,100.00
2023-03-22T23:25:48.419Z,100.00
2023-03-22T23:28:17.627Z,100.00
2023-03-22T23:30:44.572Z,100.00
2023-03-22T23:33:12.765Z,100.00
2023-03-22T23:35:43.003Z,100.00
2023-03-22T23:38:10.860Z,100.00
2023-03-22T23:40:38.155Z,100.00
2023-03-22T23:43:05.097Z,100.00
2023-03-22T23:45:32.273Z,100.00
2023-03-22T23:47:59.302Z,100.00
2023-03-22T23:50:26.199Z,100.00
2023-03-22T23:52:53.081Z,100.00
2023-03-22T23:55:22.226Z,100.00
2023-03-22T23:57:49.124Z,100.00
